KCBM/CBM METAR and TAF weather

Enter ICAO airport designator
Station Type Date Time Source
KCBM METAR 2019/02/20 06:56 UTC NOAA

KCBM 200656Z AUTO 15012KT 6SM BR OVC004 10/09 A2996 RMK AO2 RAE05 CIG 003 RWY31C SLP149 P0001 T00950087 $


Station Type Date Time Source
KCBM Decoded METAR 2019/02/20 06:56 UTC NOAA

Columbus Air Force Base, MS, United States (KCBM) 33-39N 088-27W
Feb 20, 2019 - 01:56 AM EST / 2019.02.20 0656 UTC
Wind: from the SSE (150 degrees) at 14 MPH (12 KT):0
Visibility: 6 mile(s):0
Sky conditions: overcast
Weather: mist
Precipitation last hour: 0.01 inches
Temperature: 49.1 F (9.5 C)
Dew Point: 47.7 F (8.7 C)
Relative Humidity: 94%
Pressure (altimeter): 29.96 in. Hg (1014 hPa)
ob: KCBM 200656Z AUTO 15012KT 6SM BR OVC004 10/09 A2996 RMK AO2 RAE05 CIG 003 RWY31C SLP149 P0001 T00950087
cycle: 7

Station Type Date Time Source
KCBM TAF 2019/02/20 01:54 UTC NOAA

TAF TAF
AMD KCBM 200140Z 2001/2023 07006KT 4800 -SHRA BKN006 OVC022 QNH2995INS
BECMG 2005/2006 14015G25KT 4800 -RA BR OVC004 510006 QNH2980INS
TEMPO 2010/2014 1600 BR
BECMG 2014/2015 16012G18KT 8000 -RA OVC005 QNH2975INS TX17/2017Z TN04/2018Z LAST NO
AMDS AFT 2001 NEXT 2009


Example: see airport list